Weather observations for the past three days for
Juneau, Juneau International Airport
Metric (Imperial)
Date Time (akdt) Wind (kph) Vis. (km) Weather Sky Cond. Temperature (ºC) Relative Humidity Wind Chill (°C) Heat Index (°C) Pressure Precipitation (cm)
Air Dwpt 6 hour altimeter (cm) sea level (mb) 1 hr 3 hr 6 hr
Max. Min.
04 17:53 W 9 16.09 Mostly Cloudy SCT200 BKN260 13.9 5 55% 76.12 1014.9
04 16:53 W 17 16.09 Mostly Cloudy SCT200 BKN260 13.3 5.6 60% 76.17 1015.6
04 15:53 W 17 16.09 Mostly Cloudy FEW220 BKN260 13.9 5.6 14.4 6.7 58% 76.25 1016.6
04 14:53 SW 22 16.09 Mostly Cloudy FEW220 BKN260 13.3 5.6 60% 76.33 1017.5
04 13:53 SW 22 16.09 Mostly Cloudy FEW220 BKN260 12.8 6.1 64% 76.38 1018.2
04 12:53 SW 19 16.09 Mostly Cloudy BKN240 11.7 6.1 69% 76.43 1018.8
04 11:53 W 19 16.09 Mostly Cloudy FEW021 BKN240 10 6.1 77% 8 76.48 1019.7
04 10:53 Vrbl 6 16.09 Mostly Cloudy FEW022 FEW035 BKN230 8.3 5.6 83% 76.56 1020.5
04 09:53 SW 13 4.83 Overcast BKN003 BKN044 OVC220 6.7 5.6 7.2 2.2 93% 4 76.58 1021.0
04 08:53 SW 7 3.22 Fog/Mist BKN003 OVC034 5.6 5.6 100% 4 76.63 1021.6
04 07:53 W 9 1.61 Fog/Mist BKN004 OVC120 5 4.4 96% 3 76.68 1022.2
04 06:53 Calm 0.40 Fog VV002 4.4 4.4 100% 76.71 1022.7
04 05:53 Calm 0.40 Fog VV002 3.9 3.9 100% 76.71 1022.8
04 04:53 Calm 0.21 Fog VV002 3.3 3.3 100% 76.76 1023.4
04 03:53 W 6 2.82 Patches Fog BKN003 OVC005 2.2 2.2 4.4 1.7 100% 76.78 1023.7
04 02:53 Calm 12.87 Patches Fog FEW001 SCT035 BKN220 2.2 2.2 100% 76.81 1024.0
04 01:53 Calm 9.66 Patches Fog Fog/Mist FEW001 SCT035 BKN220 2.8 2.2 96% 76.86 1024.8
04 00:53 Calm 16.09 Partly Cloudy FEW010 SCT035 SCT220 2.8 2.8 100% 76.91 1025.2
03 23:53 Calm 16.09 Partly Cloudy FEW032 FEW050 SCT220 3.3 2.8 97% 76.91 1025.2
03 22:53 Calm 16.09 Mostly Cloudy FEW032 FEW050 SCT220 BKN270 4.4 4.4 100% 76.91 1025.4
03 21:53 Calm 16.09 Mostly Cloudy FEW025 BKN032 BKN150 BKN270 6.1 5.6 10 6.1 97% 76.96 1025.9
03 20:53 Calm 16.09 Mostly Cloudy FEW018 SCT034 SCT150 BKN270 7.8 6.1 89% 76.96 1026.0
03 19:53 Calm 16.09 Overcast FEW026 BKN055 BKN200 OVC270 9.4 7.2 86% 76.96 1026.1
03 18:53 SW 9 16.09 Overcast FEW018 SCT024 OVC038 9.4 6.7 83% 8 76.99 1026.4
03 17:53 W 11 16.09 Overcast FEW014 BKN028 OVC033 9.4 6.7 83% 8 77.01 1026.7
03 16:53 W 6 16.09 Overcast FEW012 SCT028 OVC036 8.9 6.7 86% 77.04 1027.0
03 15:53 E 9 16.09 Overcast FEW014 SCT028 OVC036 9.4 6.7 10 7.8 83% 8 77.06 1027.2
03 14:53 E 6 16.09 Overcast FEW018 BKN032 OVC044 10 6.7 80% 77.06 1027.4
03 13:53 Calm 16.09 Overcast FEW012 BKN030 OVC043 9.4 6.7 83% 77.06 1027.4
03 12:53 E 15 16.09 Overcast FEW012 BKN030 OVC043 8.9 6.7 86% 7 77.06 1027.3
03 11:53 E 19 16.09 Overcast FEW012 BKN038 OVC050 8.9 6.7 86% 6 77.06 1027.2
03 10:53 E 11 16.09 Overcast FEW009 BKN035 OVC048 8.9 6.7 86% 7 77.04 1027.2
03 09:53 SW 6 16.09 Overcast SCT011 BKN035 OVC049 7.8 6.1 8.3 6.1 89% 77.06 1027.4
03 08:53 SE 9 16.09 Overcast FEW009 BKN035 OVC050 7.2 6.1 93% 6 77.04 1027.2
03 06:53 E 7 16.09 Overcast FEW005 BKN030 OVC050 6.1 5.6 97% 5 77.06 1027.3
03 05:53 E 6 16.09 Overcast FEW003 BKN012 OVC050 6.1 5.6 97% 77.04 1027.1
03 04:53 Calm 16.09 Overcast FEW004 BKN013 OVC035 6.1 5.6 97% 77.06 1027.5
03 03:53 SE 11 16.09 Overcast FEW003 SCT015 OVC030 6.7 6.1 7.8 6.1 96% 5 77.06 1027.3
03 02:53 E 7 16.09 Overcast FEW004 SCT030 OVC042 6.1 5.6 97% 5 77.06 1027.5
03 01:53 E 6 16.09 Overcast FEW009 BKN030 OVC042 6.7 5.6 93% 77.09 1027.8
03 00:53 E 9 16.09 Overcast FEW007 SCT016 OVC038 6.7 6.1 96% 5 77.06 1027.4
02 23:53 E 11 16.09 Overcast FEW007 BKN030 OVC040 7.2 6.1 93% 5 77.04 1026.9
02 22:53 E 15 16.09 Overcast FEW006 BKN030 OVC037 7.8 6.1 89% 6 77.04 1027.0
02 21:53 E 7 16.09 Overcast FEW006 BKN029 OVC037 7.8 6.1 8.3 7.2 89% 7 77.01 1026.8
02 20:53 E 15 16.09 Overcast FEW006 BKN029 OVC037 7.8 6.1 89% 6 76.96 1026.0
02 19:53 E 9 16.09 Overcast FEW006 BKN029 OVC042 8.3 6.1 86% 7 76.96 1026.1
02 18:53 E 24 16.09 Overcast SCT006 BKN034 OVC042 8.3 6.7 90% 5 76.94 1025.7
02 17:53 E 15 16.09 Overcast FEW009 OVC027 7.8 6.7 93% 6 76.96 1025.9
02 16:53 E 20 16.09 Light Rain SCT008 BKN023 OVC028 7.8 6.7 93% 5 76.91 1025.4
02 15:53 E 17 16.09 Overcast SCT008 OVC022 7.8 6.7 7.8 7.2 93% 5 76.96 1025.9
02 14:53 E 20 16.09 Overcast FEW003 SCT008 OVC025 7.2 6.1 93% 4 76.94 1025.5
02 13:53 E 17 16.09 Overcast FEW003 SCT008 OVC026 7.2 6.1 93% 5 76.94 1025.5
02 12:53 E 17 16.09 Overcast FEW003 SCT012 OVC027 7.2 6.1 93% 5 76.91 1025.5
02 11:53 E 19 16.09 Light Rain FEW003 SCT015 OVC024 7.8 6.7 93% 5 76.89 1025.0
02 10:53 E 20 11.27 Light Rain FEW003 SCT015 OVC027 7.2 6.1 93% 4 76.84 1024.4
02 09:53 E 15 12.87 Light Rain FEW004 SCT014 OVC028 7.2 5.6 7.2 6.7 90% 5 76.84 1024.2 0.1
02 08:53 E 17 12.87 Overcast FEW005 SCT016 OVC029 7.2 5.6 90% 5 76.78 1023.6
02 07:53 E 19 12.87 Overcast FEW005 SCT018 OVC032 6.7 5.6 93% 4 76.76 1023.2
02 06:53 E 20 11.27 Light Rain FEW004 BKN028 OVC044 6.7 5 89% 3 76.73 1022.9 0.03 0.1
02 05:53 E 20 9.66 Light Rain Fog/Mist FEW004 BKN029 OVC042 6.7 5.6 93% 3 76.73 1023.0 0.05
02 04:53 E 15 8.05 Light Rain Fog/Mist FEW005 SCT015 OVC028 7.2 6.1 93% 5 76.73 1022.9 0.03
02 03:53 E 17 16.09 Light Rain FEW010 BKN032 OVC045 7.2 6.1 8.9 6.7 93% 5 76.71 1022.5 0.1
02 02:53 E 17 16.09 Light Rain FEW010 SCT030 OVC050 6.7 5 89% 4 76.68 1022.2 0.03
02 01:53 E 19 16.09 Light Rain FEW015 BKN035 OVC050 7.2 5.6 90% 4 76.68 1022.4 0.05
02 00:53 E 15 16.09 Light Rain FEW024 SCT035 OVC050 7.2 5 86% 5 76.73 1023.1 0.03 0.03
01 23:53 E 13 16.09 Light Rain FEW038 BKN050 OVC060 7.8 6.1 89% 6 76.81 1023.8
01 22:53 E 22 16.09 Overcast FEW033 BKN042 OVC075 8.3 5.6 83% 5 76.76 1023.2
01 21:53 SE 26 16.09 Overcast SCT032 BKN046 OVC085 8.9 5.6 12.8 7.8 80% 6 76.71 1022.6
01 20:53 E 19 16.09 Mostly Cloudy SCT032 BKN055 BKN090 8.3 5.6 83% 6 76.71 1022.5
01 19:53 E 17 16.09 Mostly Cloudy SCT036 BKN055 BKN180 8.3 5.6 83% 6 76.71 1022.7
01 18:53 E 20 16.09 Mostly Cloudy SCT033 BKN047 BKN180 9.4 6.1 80% 7 76.73 1022.9
Date Time (akdt) Wind (kph) Vis. (km) Weather Sky Cond. Air Dwpt Max. Min. Relative Humidity Wind Chill (°C) Heat Index (°C) altimeter (cm) sea level (mb) 1 hr 3 hr 6 hr
6 hour
Temperature (ºC) Pressure Precipitation (cm)